To NAV CANADA Home Page Login to a new session Search on AWWS site Feedback and Comments Disclaimer Vers la page française équivalente Tips FAQ What's new on the site To the Forecasts and Observations / NOTAM section To "File a Flight Plan" website Publications and other links Update of the User's profile FIC Telephone Numbers My Weather Data Folder Route Weather Data Regional Weather Data Local Weather Data To the Forecasts and Observations / NOTAM section
Request Generated 09/02/2015 at 08:31:08 UTC . Weather information available at that time is displayed.

METAR/TAF

DEASE LAKE/BC    (show WxCam)

METAR CYDL 020800Z AUTO VRB02KT 9SM BKN070 BKN083 03/02 A2976 RMK
SLP090=
METAR CYDL 020700Z AUTO 00000KT 9SM OVC032 04/03 A2974 RMK SLP085=
METAR CYDL 020600Z AUTO 00000KT 9SM FEW043 SCT200 03/02 A2973 RMK
SLP082=

*** REMARK        : Forecast period has ended; this was the last TAF issued
*** REMARQUE : La période de prévision est échue; ceci était le dernier TAF qui a été émis
TAF CYDL 012338Z 0200/0202 VRB03KT P6SM BKN060 TEMPO 0200/0202 P6SM
-SHRA
RMK FCST BASED ON AUTO OBS. NXT FCST WILL BE ISSUED AT 021545Z=
Your time UTC time
Weather data provided by Environment Canada and NAV CANADA